Time;durP1;ratioP1;P1;durP2;ratioP2;P2;SDS_P1;SDS_P2;PMS_P1;PMS_P2;Temp;Humidity;BMP_temperature;BMP_pressure;BME280_temperature;BME280_humidity;BME280_pressure;Samples;Min_cycle;Max_cycle;Signal;HPM_P1;HPM_P2
2022/05/04 00:03:12;;;;;;;10.07;6.20;;;;;;;;;;8257880;28;20030;-60
2022/05/04 00:07:13;;;;;;;9.18;6.32;;;;;;;;;;8260086;28;20053;-60
2022/05/04 00:11:13;;;;;;;9.13;6.07;;;;;;;;;;8262252;28;20026;-60
2022/05/04 00:15:13;;;;;;;10.40;6.47;;;;;;;;;;8258613;28;20064;-60
2022/05/04 00:19:14;;;;;;;8.65;6.32;;;;;;;;;;8261324;28;20020;-65
2022/05/04 00:23:14;;;;;;;8.10;6.50;;;;;;;;;;8260225;28;20034;-60
2022/05/04 00:27:15;;;;;;;12.32;6.72;;;;;;;;;;8262596;28;20112;-61
2022/05/04 00:31:15;;;;;;;8.02;6.40;;;;;;;;;;8259896;28;20034;-60
2022/05/04 00:35:15;;;;;;;9.85;6.28;;;;;;;;;;8258983;28;20029;-60
2022/05/04 00:39:16;;;;;;;9.33;7.17;;;;;;;;;;8259920;28;20029;-60
2022/05/04 00:43:20;;;;;;;7.88;5.85;;;;;;;;;;8259352;28;20109;-59
2022/05/04 00:47:21;;;;;;;9.82;6.00;;;;;;;;;;8257040;28;20038;-60
2022/05/04 00:51:21;;;;;;;9.15;6.68;;;;;;;;;;8260413;28;20826;-60
2022/05/04 00:55:21;;;;;;;8.33;6.00;;;;;;;;;;8259364;28;20038;-60
2022/05/04 00:59:22;;;;;;;10.35;6.07;;;;;;;;;;8257794;28;20281;-60
2022/05/04 01:03:22;;;;;;;6.85;6.05;;;;;;;;;;8257963;28;20121;-60
2022/05/04 01:07:23;;;;;;;7.05;6.32;;;;;;;;;;8258930;28;20782;-59
2022/05/04 01:11:23;;;;;;;7.07;6.38;;;;;;;;;;8257138;28;20022;-59
2022/05/04 01:15:24;;;;;;;7.43;5.77;;;;;;;;;;8255037;28;20077;-60
2022/05/04 01:19:24;;;;;;;14.10;5.50;;;;;;;;;;8254207;28;20280;-60
2022/05/04 01:23:27;;;;;;;7.13;5.97;;;;;;;;;;8261626;28;20088;-60
2022/05/04 01:27:27;;;;;;;5.85;5.32;;;;;;;;;;8257063;28;20022;-60
2022/05/04 01:31:27;;;;;;;9.73;6.53;;;;;;;;;;8262004;28;20607;-60
2022/05/04 01:35:28;;;;;;;7.63;5.85;;;;;;;;;;8255856;28;20765;-59
2022/05/04 01:39:28;;;;;;;7.57;5.63;;;;;;;;;;8256925;28;20032;-60
2022/05/04 01:43:28;;;;;;;6.93;4.95;;;;;;;;;;8254949;28;20029;-61
2022/05/04 01:47:28;;;;;;;8.55;4.88;;;;;;;;;;8255891;28;20053;-60
2022/05/04 01:51:29;;;;;;;9.88;6.07;;;;;;;;;;8256603;28;20022;-60
2022/05/04 01:55:32;;;;;;;6.85;6.10;;;;;;;;;;8258112;28;20030;-66
2022/05/04 01:59:32;;;;;;;6.30;5.63;;;;;;;;;;8257554;28;20106;-60
2022/05/04 02:03:32;;;;;;;9.15;5.88;;;;;;;;;;8255951;28;20417;-60
2022/05/04 02:07:34;;;;;;;10.30;5.93;;;;;;;;;;8257413;28;20067;-60
2022/05/04 02:11:35;;;;;;;8.10;5.70;;;;;;;;;;8256095;28;20269;-60
2022/05/04 02:15:35;;;;;;;6.90;5.70;;;;;;;;;;8254320;28;20572;-60
2022/05/04 02:19:35;;;;;;;8.50;6.00;;;;;;;;;;8257449;28;20030;-60
2022/05/04 02:23:38;;;;;;;6.85;6.22;;;;;;;;;;8247938;28;20514;-61
2022/05/04 02:27:38;;;;;;;7.65;6.07;;;;;;;;;;8258764;28;20029;-60
2022/05/04 02:31:39;;;;;;;7.82;6.28;;;;;;;;;;8262063;28;20046;-60
2022/05/04 02:39:58;;;;;;;10.18;6.20;;;;;;;;;;8263271;28;20040;-60
2022/05/04 02:44:00;;;;;;;7.13;5.65;;;;;;;;;;8262150;28;20718;-60
2022/05/04 02:48:00;;;;;;;10.65;5.80;;;;;;;;;;8261282;28;20048;-61
2022/05/04 02:52:00;;;;;;;7.50;5.15;;;;;;;;;;8262832;28;20104;-60
2022/05/04 02:56:01;;;;;;;7.83;5.60;;;;;;;;;;8262569;28;20144;-59
2022/05/04 03:00:02;;;;;;;7.05;5.97;;;;;;;;;;8259391;28;20280;-60
2022/05/04 03:04:07;;;;;;;6.70;5.85;;;;;;;;;;8260881;28;20045;-60
2022/05/04 03:08:07;;;;;;;9.75;5.78;;;;;;;;;;8262634;28;20904;-60
2022/05/04 03:12:07;;;;;;;5.88;5.22;;;;;;;;;;8262315;28;20137;-60
2022/05/04 03:16:07;;;;;;;5.72;5.10;;;;;;;;;;8261525;28;20157;-59
2022/05/04 03:20:08;;;;;;;6.50;5.13;;;;;;;;;;8262539;28;20152;-60
2022/05/04 03:24:09;;;;;;;6.93;5.38;;;;;;;;;;8263664;28;20030;-59
2022/05/04 03:28:09;;;;;;;6.60;5.63;;;;;;;;;;8263044;28;20481;-60
2022/05/04 03:32:09;;;;;;;7.43;5.70;;;;;;;;;;8259827;28;20100;-61
2022/05/04 03:36:10;;;;;;;7.20;5.70;;;;;;;;;;8259104;28;20038;-59
2022/05/04 03:40:13;;;;;;;7.05;5.57;;;;;;;;;;8258687;28;20603;-60
2022/05/04 03:44:13;;;;;;;11.50;6.03;;;;;;;;;;8261107;28;20022;-59
2022/05/04 03:48:13;;;;;;;7.10;4.95;;;;;;;;;;8259862;28;20125;-60
2022/05/04 03:52:14;;;;;;;8.75;5.50;;;;;;;;;;8258538;28;20796;-60
2022/05/04 03:56:14;;;;;;;9.20;5.68;;;;;;;;;;8262056;28;20026;-60
2022/05/04 04:00:15;;;;;;;6.68;5.55;;;;;;;;;;8260597;28;20025;-60
2022/05/04 04:04:15;;;;;;;7.40;5.28;;;;;;;;;;8262146;28;20029;-59
2022/05/04 04:08:16;;;;;;;7.03;5.45;;;;;;;;;;8259982;28;20107;-61
2022/05/04 04:12:16;;;;;;;5.95;4.35;;;;;;;;;;8260547;28;20511;-60
2022/05/04 04:16:16;;;;;;;6.90;4.63;;;;;;;;;;8259394;28;20041;-60
2022/05/04 04:24:35;;;;;;;7.85;4.70;;;;;;;;;;8259934;28;20792;-59
2022/05/04 04:28:38;;;;;;;6.40;4.63;;;;;;;;;;8258586;28;20033;-61
2022/05/04 04:32:38;;;;;;;6.85;4.85;;;;;;;;;;8259234;28;20863;-59
2022/05/04 04:36:38;;;;;;;8.48;4.82;;;;;;;;;;8260550;28;20025;-60
2022/05/04 04:40:39;;;;;;;5.95;4.70;;;;;;;;;;8260797;28;20041;-61
2022/05/04 04:44:39;;;;;;;6.40;4.93;;;;;;;;;;8261996;28;20025;-61
2022/05/04 04:48:42;;;;;;;5.75;4.72;;;;;;;;;;8259872;28;20128;-61
2022/05/04 04:52:42;;;;;;;7.57;4.90;;;;;;;;;;8258042;28;20064;-60
2022/05/04 04:56:43;;;;;;;6.18;4.60;;;;;;;;;;8258267;28;20034;-60
2022/05/04 05:00:43;;;;;;;7.43;4.22;;;;;;;;;;8256085;28;20632;-60
2022/05/04 05:04:43;;;;;;;5.18;3.83;;;;;;;;;;8259445;28;20026;-61
2022/05/04 05:08:44;;;;;;;6.97;4.30;;;;;;;;;;8260546;28;20994;-60
2022/05/04 05:12:45;;;;;;;7.93;4.80;;;;;;;;;;8260828;28;20068;-61
2022/05/04 05:16:45;;;;;;;6.35;4.72;;;;;;;;;;8257985;28;20030;-60
2022/05/04 05:20:45;;;;;;;7.53;5.20;;;;;;;;;;8290594;28;20560;-59
2022/05/04 05:24:46;;;;;;;5.80;4.70;;;;;;;;;;8260826;28;20127;-60
2022/05/04 05:28:47;;;;;;;10.25;4.57;;;;;;;;;;8257784;28;20022;-60
2022/05/04 05:32:48;;;;;;;10.55;4.85;;;;;;;;;;8255649;28;20034;-60
2022/05/04 05:36:48;;;;;;;8.88;4.95;;;;;;;;;;8257414;28;20148;-59
2022/05/04 05:40:48;;;;;;;7.80;4.95;;;;;;;;;;8258567;28;20022;-60
2022/05/04 05:44:49;;;;;;;11.32;5.20;;;;;;;;;;8256688;28;20106;-60
2022/05/04 05:48:50;;;;;;;11.30;4.50;;;;;;;;;;8257772;28;20072;-60
2022/05/04 05:52:50;;;;;;;7.95;4.90;;;;;;;;;;8256632;28;20387;-60
2022/05/04 05:56:51;;;;;;;12.90;4.30;;;;;;;;;;8258884;28;20084;-60
2022/05/04 06:00:51;;;;;;;8.55;4.25;;;;;;;;;;8257919;28;20065;-60
2022/05/04 06:04:51;;;;;;;6.80;4.33;;;;;;;;;;8256624;28;20762;-60
2022/05/04 06:08:51;;;;;;;5.15;4.30;;;;;;;;;;8259078;28;21086;-60
2022/05/04 06:12:52;;;;;;;5.97;4.10;;;;;;;;;;8259817;28;20036;-61
2022/05/04 06:16:52;;;;;;;4.97;4.05;;;;;;;;;;8254319;28;20148;-60
2022/05/04 06:21:00;;;;;;;7.63;4.63;;;;;;;;;;8256539;28;20526;-60
2022/05/04 06:25:00;;;;;;;7.75;4.35;;;;;;;;;;8256753;28;20014;-61
2022/05/04 06:29:00;;;;;;;5.47;4.23;;;;;;;;;;8257424;28;20559;-61
2022/05/04 06:37:19;;;;;;;6.15;4.55;;;;;;;;;;8253372;28;20077;-61
2022/05/04 06:41:22;;;;;;;5.80;4.13;;;;;;;;;;8256262;28;20018;-61
2022/05/04 06:45:23;;;;;;;7.93;4.30;;;;;;;;;;8255425;28;20204;-62
2022/05/04 06:49:23;;;;;;;4.50;3.40;;;;;;;;;;8256458;28;20022;-61
2022/05/04 06:53:24;;;;;;;4.22;3.70;;;;;;;;;;8252111;28;20022;-61
2022/05/04 06:57:24;;;;;;;4.80;3.90;;;;;;;;;;8254941;28;20095;-60
2022/05/04 07:01:24;;;;;;;5.40;4.10;;;;;;;;;;8250971;28;20034;-60
2022/05/04 07:05:26;;;;;;;4.05;3.55;;;;;;;;;;8253280;28;20458;-61
2022/05/04 07:09:27;;;;;;;4.65;3.92;;;;;;;;;;8253924;28;20124;-61
2022/05/04 07:13:27;;;;;;;4.57;3.60;;;;;;;;;;8251474;28;20037;-61
2022/05/04 07:17:27;;;;;;;6.07;3.63;;;;;;;;;;8258561;28;20499;-61
2022/05/04 07:21:27;;;;;;;3.92;3.60;;;;;;;;;;8256947;28;20100;-61
2022/05/04 08:59:03;;;;;;;8.48;5.40;;;;;;;;;;8285344;28;20033;-61
2022/05/04 09:03:03;;;;;;;5.45;4.60;;;;;;;;;;8260886;28;20149;-69
2022/05/04 09:07:04;;;;;;;6.20;4.90;;;;;;;;;;8257706;28;20030;-63
2022/05/04 09:11:14;;;;;;;6.90;5.20;;;;;;;;;;8258635;28;20276;-62
2022/05/04 09:15:20;;;;;;;6.97;4.50;;;;;;;;;;8249444;28;20291;-63
2022/05/04 09:19:21;;;;;;;10.23;5.57;;;;;;;;;;8251213;28;20044;-63
2022/05/04 09:23:24;;;;;;;7.63;5.00;;;;;;;;;;8259007;28;20021;-63
2022/05/04 09:27:28;;;;;;;5.40;4.90;;;;;;;;;;8251913;28;20127;-63
2022/05/04 09:31:33;;;;;;;5.28;4.78;;;;;;;;;;8256597;28;20038;-63
2022/05/04 09:35:33;;;;;;;5.88;4.70;;;;;;;;;;8255570;28;20027;-64
2022/05/04 09:48:12;;;;;;;4.93;4.43;;;;;;;;;;8255007;28;20509;-63
2022/05/04 09:52:14;;;;;;;6.63;4.57;;;;;;;;;;8257908;28;20290;-62
2022/05/04 09:56:14;;;;;;;14.03;5.10;;;;;;;;;;8260154;28;20107;-63
2022/05/04 10:00:17;;;;;;;5.90;5.30;;;;;;;;;;8255171;28;20068;-63
2022/05/04 10:04:20;;;;;;;8.95;4.68;;;;;;;;;;8259524;28;20826;-62
2022/05/04 10:08:21;;;;;;;5.97;5.03;;;;;;;;;;8256684;28;20033;-63
2022/05/04 10:12:21;;;;;;;5.65;4.97;;;;;;;;;;8259024;28;20022;-62
2022/05/04 10:16:22;;;;;;;7.97;4.90;;;;;;;;;;8251879;28;20040;-62
2022/05/04 10:20:30;;;;;;;7.93;4.80;;;;;;;;;;8256624;28;20269;-63
2022/05/04 10:24:35;;;;;;;7.05;5.63;;;;;;;;;;8258088;28;20046;-62
2022/05/04 10:28:36;;;;;;;6.60;5.55;;;;;;;;;;8258381;28;20046;-62
2022/05/04 10:32:37;;;;;;;6.50;5.82;;;;;;;;;;8255521;28;20038;-62
2022/05/04 10:36:38;;;;;;;6.50;5.40;;;;;;;;;;8257658;28;20573;-61
2022/05/04 10:40:42;;;;;;;8.85;5.82;;;;;;;;;;8257540;28;20418;-62
2022/05/04 10:44:53;;;;;;;7.95;5.88;;;;;;;;;;8256839;28;20026;-62
2022/05/04 10:48:53;;;;;;;6.25;5.50;;;;;;;;;;8258166;28;20033;-62
2022/05/04 10:52:54;;;;;;;8.20;5.93;;;;;;;;;;8263181;28;20177;-61
2022/05/04 10:56:54;;;;;;;7.20;6.50;;;;;;;;;;8265162;28;20087;-62
2022/05/04 11:01:04;;;;;;;6.47;5.88;;;;;;;;;;8262382;28;20289;-62
2022/05/04 11:05:11;;;;;;;8.05;5.45;;;;;;;;;;8265019;28;20026;-62
2022/05/04 11:09:16;;;;;;;6.05;5.45;;;;;;;;;;8265546;28;20103;-63
2022/05/04 11:13:16;;;;;;;8.80;5.40;;;;;;;;;;8264418;28;20034;-61
2022/05/04 11:17:16;;;;;;;9.52;5.55;;;;;;;;;;8262985;28;20052;-60
2022/05/04 11:21:18;;;;;;;8.32;5.13;;;;;;;;;;8264435;28;20080;-60
2022/05/04 11:25:18;;;;;;;6.78;5.00;;;;;;;;;;8263018;28;20018;-60
2022/05/04 11:29:23;;;;;;;6.87;4.43;;;;;;;;;;8265126;28;20048;-60
2022/05/04 11:33:23;;;;;;;7.45;5.43;;;;;;;;;;8261375;28;20125;-61
2022/05/04 11:37:24;;;;;;;8.47;4.70;;;;;;;;;;8263842;28;20049;-60
2022/05/04 11:41:24;;;;;;;4.78;4.22;;;;;;;;;;8262085;28;20018;-60
2022/05/04 11:45:24;;;;;;;4.70;4.17;;;;;;;;;;8262493;28;20508;-60
2022/05/04 11:49:25;;;;;;;5.72;4.63;;;;;;;;;;8263269;28;20497;-60
2022/05/04 11:53:25;;;;;;;5.05;3.80;;;;;;;;;;8264152;28;20535;-60
2022/05/04 11:57:26;;;;;;;4.50;4.10;;;;;;;;;;8261575;28;20069;-60
2022/05/04 12:01:26;;;;;;;10.05;4.20;;;;;;;;;;8262685;28;20445;-61
2022/05/04 12:05:26;;;;;;;6.13;4.80;;;;;;;;;;8261408;28;20040;-60
2022/05/04 12:09:27;;;;;;;5.43;3.93;;;;;;;;;;8261096;28;20030;-61
2022/05/04 12:13:27;;;;;;;6.07;3.75;;;;;;;;;;8261775;28;20271;-60
2022/05/04 12:17:28;;;;;;;7.20;4.70;;;;;;;;;;8258738;28;20037;-62
2022/05/04 12:21:28;;;;;;;6.25;5.53;;;;;;;;;;8260500;28;20049;-62
2022/05/04 12:25:28;;;;;;;5.03;4.53;;;;;;;;;;8260846;28;20052;-62
2022/05/04 12:33:57;;;;;;;6.30;4.82;;;;;;;;;;8234323;28;20075;-61
2022/05/04 12:37:58;;;;;;;4.57;4.18;;;;;;;;;;8250944;28;20588;-61
2022/05/04 12:41:59;;;;;;;5.32;4.35;;;;;;;;;;8252598;28;20030;-61
2022/05/04 12:45:59;;;;;;;5.78;4.10;;;;;;;;;;8245371;28;20061;-61
2022/05/04 12:50:00;;;;;;;6.63;4.07;;;;;;;;;;8250005;28;20030;-61
2022/05/04 12:54:00;;;;;;;4.30;3.90;;;;;;;;;;8242263;28;20144;-61
2022/05/04 12:58:00;;;;;;;5.47;4.65;;;;;;;;;;8248112;28;20100;-61
2022/05/04 13:02:01;;;;;;;4.28;3.88;;;;;;;;;;8246376;28;20065;-61
2022/05/04 13:06:01;;;;;;;4.55;4.15;;;;;;;;;;8249181;28;20026;-61
2022/05/04 13:10:02;;;;;;;5.10;4.10;;;;;;;;;;8245387;28;20466;-61
2022/05/04 13:14:03;;;;;;;4.22;3.80;;;;;;;;;;8247611;28;20026;-61
2022/05/04 13:18:04;;;;;;;5.00;3.42;;;;;;;;;;8243843;28;20562;-60
2022/05/04 13:22:04;;;;;;;3.90;3.60;;;;;;;;;;8244868;28;20018;-61
2022/05/04 13:26:04;;;;;;;3.97;3.53;;;;;;;;;;8246330;28;20485;-60
2022/05/04 13:30:05;;;;;;;4.07;3.45;;;;;;;;;;8246596;28;20041;-61
2022/05/04 13:34:06;;;;;;;3.75;3.30;;;;;;;;;;8241637;28;20315;-60
2022/05/04 13:38:06;;;;;;;4.20;3.22;;;;;;;;;;8246937;28;20080;-61
2022/05/04 13:42:07;;;;;;;3.00;2.80;;;;;;;;;;8247336;28;20022;-61
2022/05/04 13:46:07;;;;;;;2.63;2.27;;;;;;;;;;8246359;28;20187;-61
2022/05/04 13:54:26;;;;;;;3.30;2.58;;;;;;;;;;8247655;28;20669;-60
2022/05/04 13:58:26;;;;;;;2.43;2.23;;;;;;;;;;8243705;28;20026;-60
2022/05/04 14:02:26;;;;;;;7.97;3.22;;;;;;;;;;8247385;28;20736;-61
2022/05/04 14:06:27;;;;;;;7.63;3.08;;;;;;;;;;8245987;28;20209;-60
2022/05/04 14:10:28;;;;;;;4.47;3.15;;;;;;;;;;8244150;28;20671;-60
2022/05/04 14:18:47;;;;;;;4.53;2.97;;;;;;;;;;8245787;28;20041;-64
2022/05/04 14:22:48;;;;;;;3.80;3.40;;;;;;;;;;8246060;28;20349;-60
2022/05/04 14:26:51;;;;;;;5.00;3.45;;;;;;;;;;8253640;28;20038;-61
2022/05/04 14:30:51;;;;;;;3.92;3.50;;;;;;;;;;8251217;28;20514;-61
2022/05/04 14:34:51;;;;;;;3.90;3.03;;;;;;;;;;8252720;28;20502;-61
2022/05/04 14:38:52;;;;;;;4.63;3.22;;;;;;;;;;8252733;28;20447;-61
2022/05/04 14:42:54;;;;;;;3.58;3.25;;;;;;;;;;8252703;28;20951;-61
2022/05/04 14:46:54;;;;;;;4.10;2.97;;;;;;;;;;8251225;28;20079;-61
2022/05/04 14:50:54;;;;;;;4.25;3.30;;;;;;;;;;8252087;28;20484;-61
2022/05/04 14:54:54;;;;;;;4.20;3.27;;;;;;;;;;8253187;28;20025;-61
2022/05/04 14:58:54;;;;;;;2.85;2.65;;;;;;;;;;8251486;28;20453;-61
2022/05/04 15:07:13;;;;;;;3.13;2.60;;;;;;;;;;8252603;28;20494;-61
2022/05/04 15:11:14;;;;;;;5.28;2.97;;;;;;;;;;8251122;28;20403;-61
2022/05/04 15:15:14;;;;;;;2.95;2.55;;;;;;;;;;8252492;28;20030;-61
2022/05/04 15:19:14;;;;;;;2.72;2.28;;;;;;;;;;8251468;28;20820;-60
2022/05/04 15:23:14;;;;;;;2.25;2.05;;;;;;;;;;8252244;28;20524;-60
2022/05/04 15:27:14;;;;;;;2.30;2.10;;;;;;;;;;8250546;28;20025;-61
2022/05/04 15:31:15;;;;;;;2.33;2.13;;;;;;;;;;8250426;28;20513;-61
2022/05/04 15:35:15;;;;;;;2.30;2.10;;;;;;;;;;8250082;28;20141;-60
2022/05/04 15:39:15;;;;;;;2.28;2.08;;;;;;;;;;8251901;28;20026;-60
2022/05/04 15:43:15;;;;;;;2.20;2.00;;;;;;;;;;8250271;28;20776;-60
2022/05/04 15:47:16;;;;;;;3.40;2.50;;;;;;;;;;8249983;28;20261;-60
2022/05/04 15:51:16;;;;;;;2.30;2.10;;;;;;;;;;8249419;28;20109;-60
2022/05/04 15:55:16;;;;;;;2.45;2.25;;;;;;;;;;8251021;28;20030;-60
2022/05/04 15:59:16;;;;;;;4.03;2.25;;;;;;;;;;8246946;28;20030;-61
2022/05/04 16:07:36;;;;;;;2.38;2.10;;;;;;;;;;8248277;28;20049;-60
2022/05/04 16:11:37;;;;;;;2.88;2.55;;;;;;;;;;8250611;28;20026;-60
2022/05/04 16:15:37;;;;;;;2.08;1.98;;;;;;;;;;8249416;28;20053;-60
2022/05/04 16:23:56;;;;;;;3.40;2.90;;;;;;;;;;8247888;28;20178;-60
2022/05/04 16:27:57;;;;;;;2.83;2.53;;;;;;;;;;8249824;28;22467;-60
2022/05/04 16:31:57;;;;;;;3.00;2.70;;;;;;;;;;8247009;28;20045;-60
2022/05/04 16:35:58;;;;;;;4.80;3.25;;;;;;;;;;8250367;28;20029;-60
2022/05/04 16:39:58;;;;;;;2.83;2.50;;;;;;;;;;8248691;28;20251;-60
2022/05/04 16:43:59;;;;;;;2.60;2.40;;;;;;;;;;8248644;28;20450;-60
2022/05/04 16:47:59;;;;;;;5.40;2.35;;;;;;;;;;8248811;28;20762;-61
2022/05/04 16:51:59;;;;;;;3.90;3.10;;;;;;;;;;8248387;28;20045;-60
2022/05/04 16:56:00;;;;;;;3.83;2.53;;;;;;;;;;8248703;28;20971;-60
2022/05/04 17:00:00;;;;;;;3.58;2.22;;;;;;;;;;8247936;28;20049;-60
2022/05/04 17:04:00;;;;;;;3.42;2.28;;;;;;;;;;8244583;28;20172;-60
2022/05/04 17:08:01;;;;;;;2.40;2.20;;;;;;;;;;8247110;28;20040;-60
2022/05/04 17:12:01;;;;;;;2.20;2.00;;;;;;;;;;8246207;28;20744;-60
2022/05/04 17:16:01;;;;;;;2.45;2.22;;;;;;;;;;8245408;28;20045;-60
2022/05/04 17:20:01;;;;;;;2.13;1.93;;;;;;;;;;8248987;28;20025;-60
2022/05/04 17:24:05;;;;;;;2.22;1.95;;;;;;;;;;8246558;28;20268;-60
2022/05/04 17:28:05;;;;;;;2.45;2.15;;;;;;;;;;8245636;28;20033;-60
2022/05/04 17:36:42;;;;;;;2.40;2.20;;;;;;;;;;8247067;28;20601;-60
2022/05/04 17:40:45;;;;;;;4.03;2.88;;;;;;;;;;8248859;28;20414;-60
2022/05/04 17:44:45;;;;;;;2.25;2.05;;;;;;;;;;8247756;28;20018;-60
2022/05/04 17:48:45;;;;;;;3.85;2.15;;;;;;;;;;8243864;28;20562;-60
2022/05/04 17:52:45;;;;;;;2.72;2.25;;;;;;;;;;8247116;28;20026;-60
2022/05/04 17:56:45;;;;;;;2.63;2.20;;;;;;;;;;8247690;28;20105;-60
2022/05/04 18:00:46;;;;;;;2.40;2.20;;;;;;;;;;8244959;28;20400;-60
2022/05/04 18:04:46;;;;;;;4.93;2.50;;;;;;;;;;8245553;28;20543;-60
2022/05/04 18:08:46;;;;;;;2.67;2.47;;;;;;;;;;8246512;28;20332;-60
2022/05/04 18:12:46;;;;;;;2.50;2.30;;;;;;;;;;8245986;28;20032;-60
2022/05/04 18:16:46;;;;;;;2.33;2.15;;;;;;;;;;8247099;28;20521;-60
2022/05/04 18:20:47;;;;;;;2.80;2.28;;;;;;;;;;8244416;28;20525;-59
2022/05/04 18:24:47;;;;;;;2.33;2.13;;;;;;;;;;8247585;28;20602;-59
2022/05/04 18:28:47;;;;;;;3.70;2.22;;;;;;;;;;8246870;28;20030;-59
2022/05/04 18:32:48;;;;;;;2.63;2.42;;;;;;;;;;8246325;28;20529;-59
2022/05/04 18:36:48;;;;;;;4.10;2.73;;;;;;;;;;8243254;28;20034;-59
2022/05/04 18:40:48;;;;;;;3.35;2.42;;;;;;;;;;8246065;28;20261;-59
2022/05/04 18:44:48;;;;;;;2.95;2.28;;;;;;;;;;8244830;28;20026;-59
2022/05/04 18:48:49;;;;;;;3.00;2.20;;;;;;;;;;8245601;28;20069;-59
2022/05/04 18:52:50;;;;;;;3.90;2.60;;;;;;;;;;8245725;28;20278;-59
2022/05/04 18:56:50;;;;;;;3.65;2.70;;;;;;;;;;8247304;28;20034;-60
2022/05/04 19:00:51;;;;;;;2.97;2.60;;;;;;;;;;8244762;28;20545;-59
2022/05/04 19:04:51;;;;;;;5.43;2.65;;;;;;;;;;8245088;28;20410;-59
2022/05/04 19:08:51;;;;;;;7.65;3.55;;;;;;;;;;8244415;28;20111;-59
2022/05/04 19:12:51;;;;;;;4.90;4.40;;;;;;;;;;8251243;28;20463;-59
2022/05/04 19:16:52;;;;;;;5.38;4.88;;;;;;;;;;8250007;28;20211;-59
2022/05/04 19:20:52;;;;;;;9.20;6.60;;;;;;;;;;8249863;28;20014;-59
2022/05/04 19:24:52;;;;;;;7.32;5.97;;;;;;;;;;8251996;28;20385;-59
2022/05/04 19:28:52;;;;;;;10.75;7.43;;;;;;;;;;8248980;28;20033;-59
2022/05/04 19:32:53;;;;;;;9.63;6.95;;;;;;;;;;8250452;28;20038;-59
2022/05/04 19:36:53;;;;;;;6.35;5.25;;;;;;;;;;8250406;28;20960;-59
2022/05/04 19:40:54;;;;;;;6.53;5.50;;;;;;;;;;8248668;28;20044;-61
2022/05/04 19:44:54;;;;;;;10.18;7.22;;;;;;;;;;8248965;28;20036;-59
2022/05/04 19:48:54;;;;;;;7.70;6.90;;;;;;;;;;8250349;28;20037;-59
2022/05/04 19:52:54;;;;;;;9.93;8.50;;;;;;;;;;8250801;28;20044;-59
2022/05/04 19:56:55;;;;;;;13.20;9.70;;;;;;;;;;8250852;28;20121;-59
2022/05/04 20:00:56;;;;;;;14.65;10.65;;;;;;;;;;8249787;28;20309;-59
2022/05/04 20:04:56;;;;;;;11.57;10.38;;;;;;;;;;8254929;28;20684;-59
2022/05/04 20:08:56;;;;;;;13.48;10.63;;;;;;;;;;8251184;28;20566;-59
2022/05/04 20:12:57;;;;;;;17.70;11.88;;;;;;;;;;8249961;28;20053;-59
2022/05/04 20:16:59;;;;;;;15.80;12.32;;;;;;;;;;8249680;28;20045;-59
2022/05/04 20:20:59;;;;;;;19.02;14.70;;;;;;;;;;8251747;28;20592;-59
2022/05/04 20:25:00;;;;;;;17.65;15.30;;;;;;;;;;8254669;28;20018;-59
2022/05/04 20:29:01;;;;;;;21.83;15.02;;;;;;;;;;8253509;28;20018;-59
2022/05/04 20:33:01;;;;;;;23.58;16.10;;;;;;;;;;8251715;28;20033;-59
2022/05/04 20:37:01;;;;;;;21.90;17.48;;;;;;;;;;8253239;28;20026;-59
2022/05/04 20:41:02;;;;;;;22.37;17.33;;;;;;;;;;8252224;28;20513;-59
2022/05/04 20:45:03;;;;;;;19.17;15.73;;;;;;;;;;8252292;28;20033;-60
2022/05/04 20:49:05;;;;;;;21.40;17.63;;;;;;;;;;8251211;28;20403;-59
2022/05/04 20:53:05;;;;;;;23.30;17.75;;;;;;;;;;8251437;28;20017;-59
2022/05/04 20:57:05;;;;;;;22.83;17.15;;;;;;;;;;8251446;28;20112;-59
2022/05/04 21:01:06;;;;;;;21.92;16.63;;;;;;;;;;8253102;28;20045;-59
2022/05/04 21:05:07;;;;;;;19.35;15.15;;;;;;;;;;8250958;28;20021;-59
2022/05/04 21:09:07;;;;;;;19.17;15.68;;;;;;;;;;8252516;28;20029;-59
2022/05/04 21:13:08;;;;;;;22.05;15.63;;;;;;;;;;8251486;28;20029;-59
2022/05/04 21:17:08;;;;;;;19.83;14.27;;;;;;;;;;8251115;28;20577;-59
2022/05/04 21:21:08;;;;;;;19.77;15.10;;;;;;;;;;8248693;28;20616;-59
2022/05/04 21:25:14;;;;;;;18.73;14.18;;;;;;;;;;8251828;28;20517;-59
2022/05/04 21:29:14;;;;;;;15.57;12.88;;;;;;;;;;8249952;28;20466;-59
2022/05/04 21:33:14;;;;;;;17.98;13.75;;;;;;;;;;8250396;28;20042;-59
2022/05/04 21:37:15;;;;;;;17.60;14.40;;;;;;;;;;8250575;28;20022;-59
2022/05/04 21:41:15;;;;;;;22.02;16.23;;;;;;;;;;8250678;28;20261;-59
2022/05/04 21:45:15;;;;;;;20.02;14.68;;;;;;;;;;8249525;28;20805;-60
2022/05/04 21:49:16;;;;;;;20.50;15.30;;;;;;;;;;8250215;28;20120;-59
2022/05/04 21:53:16;;;;;;;20.27;14.80;;;;;;;;;;8256106;28;20823;-60
2022/05/04 21:57:16;;;;;;;16.67;13.73;;;;;;;;;;8256678;28;20025;-59
2022/05/04 22:01:16;;;;;;;15.93;13.90;;;;;;;;;;8254292;28;20501;-60
2022/05/04 22:05:17;;;;;;;17.55;14.88;;;;;;;;;;8256452;28;20057;-59
2022/05/04 22:09:17;;;;;;;17.25;14.57;;;;;;;;;;8257695;28;20037;-60
2022/05/04 22:17:37;;;;;;;15.80;14.05;;;;;;;;;;8251265;28;20045;-61
2022/05/04 22:21:37;;;;;;;16.20;14.13;;;;;;;;;;8252384;28;20133;-59
2022/05/04 22:25:38;;;;;;;21.48;15.80;;;;;;;;;;8255201;28;20053;-60
2022/05/04 22:29:45;;;;;;;19.63;15.48;;;;;;;;;;8256333;28;20165;-61
2022/05/04 22:33:46;;;;;;;21.13;15.82;;;;;;;;;;8254233;28;20100;-60
2022/05/04 22:37:46;;;;;;;19.77;16.88;;;;;;;;;;8256815;28;20025;-59
2022/05/04 22:41:46;;;;;;;17.98;14.73;;;;;;;;;;8257633;28;20022;-60
2022/05/04 22:45:46;;;;;;;20.40;16.38;;;;;;;;;;8257803;28;20062;-60
2022/05/04 22:49:47;;;;;;;20.63;15.23;;;;;;;;;;8261382;28;20436;-60
2022/05/04 22:53:47;;;;;;;17.00;13.85;;;;;;;;;;8293508;28;20048;-60
2022/05/04 22:57:48;;;;;;;15.13;12.73;;;;;;;;;;8262350;28;20126;-60
2022/05/04 23:01:48;;;;;;;12.88;11.50;;;;;;;;;;8260384;28;20053;-60
2022/05/04 23:05:48;;;;;;;14.93;12.25;;;;;;;;;;8261397;28;20029;-59
2022/05/04 23:09:49;;;;;;;16.07;13.30;;;;;;;;;;8262487;28;20026;-60
2022/05/04 23:13:49;;;;;;;13.63;11.82;;;;;;;;;;8261454;28;20280;-60
2022/05/04 23:17:50;;;;;;;14.95;12.02;;;;;;;;;;8260616;28;20538;-61
2022/05/04 23:21:50;;;;;;;18.25;13.40;;;;;;;;;;8258714;28;20056;-60
2022/05/04 23:25:50;;;;;;;14.30;11.88;;;;;;;;;;8261834;28;20022;-60
2022/05/04 23:29:51;;;;;;;15.32;12.07;;;;;;;;;;8258977;28;20033;-60
2022/05/04 23:33:51;;;;;;;13.32;12.05;;;;;;;;;;8264655;28;20034;-60
2022/05/04 23:37:52;;;;;;;15.43;12.90;;;;;;;;;;8268024;28;20033;-60
2022/05/04 23:41:53;;;;;;;15.73;13.15;;;;;;;;;;8259405;28;20077;-60
2022/05/04 23:45:53;;;;;;;13.88;11.77;;;;;;;;;;8259614;28;20041;-60
2022/05/04 23:49:54;;;;;;;13.48;12.07;;;;;;;;;;8259106;28;20763;-59
2022/05/04 23:53:54;;;;;;;15.32;11.80;;;;;;;;;;8260039;28;20492;-59
2022/05/04 23:57:54;;;;;;;15.23;11.25;;;;;;;;;;8259576;28;20017;-60
